sensor_id;sensor_type;location;lat;lon;timestamp;P1;durP1;ratioP1;P2;durP2;ratioP2
74064;SDS011;62421;51.412;5.432;2023-10-13T00:01:18;18.27;;;8.67;;
74064;SDS011;62421;51.412;5.432;2023-10-13T00:03:44;21.08;;;9.40;;
74064;SDS011;62421;51.412;5.432;2023-10-13T00:06:09;16.80;;;8.87;;
74064;SDS011;62421;51.412;5.432;2023-10-13T00:08:35;25.23;;;8.93;;
74064;SDS011;62421;51.412;5.432;2023-10-13T00:11:05;24.02;;;9.45;;
74064;SDS011;62421;51.412;5.432;2023-10-13T00:13:30;19.77;;;9.38;;
74064;SDS011;62421;51.412;5.432;2023-10-13T00:16:07;20.77;;;9.33;;
74064;SDS011;62421;51.412;5.432;2023-10-13T00:18:35;19.98;;;9.13;;
74064;SDS011;62421;51.412;5.432;2023-10-13T00:21:06;30.67;;;9.30;;
74064;SDS011;62421;51.412;5.432;2023-10-13T00:23:42;21.52;;;8.73;;
74064;SDS011;62421;51.412;5.432;2023-10-13T00:26:24;19.17;;;8.88;;
74064;SDS011;62421;51.412;5.432;2023-10-13T00:28:54;15.60;;;8.73;;
74064;SDS011;62421;51.412;5.432;2023-10-13T00:31:32;18.40;;;8.15;;
74064;SDS011;62421;51.412;5.432;2023-10-13T00:33:58;22.67;;;8.77;;
74064;SDS011;62421;51.412;5.432;2023-10-13T00:36:34;18.70;;;8.02;;
74064;SDS011;62421;51.412;5.432;2023-10-13T00:39:00;17.53;;;9.00;;
74064;SDS011;62421;51.412;5.432;2023-10-13T00:41:25;19.70;;;8.53;;
74064;SDS011;62421;51.412;5.432;2023-10-13T00:44:10;17.13;;;8.27;;
74064;SDS011;62421;51.412;5.432;2023-10-13T00:46:35;14.90;;;8.60;;
74064;SDS011;62421;51.412;5.432;2023-10-13T00:49:04;18.30;;;8.52;;
74064;SDS011;62421;51.412;5.432;2023-10-13T00:51:31;22.60;;;8.50;;
74064;SDS011;62421;51.412;5.432;2023-10-13T00:54:00;26.45;;;9.38;;
74064;SDS011;62421;51.412;5.432;2023-10-13T00:56:32;19.37;;;7.67;;
74064;SDS011;62421;51.412;5.432;2023-10-13T00:58:57;17.40;;;7.97;;
74064;SDS011;62421;51.412;5.432;2023-10-13T01:01:27;20.37;;;8.53;;
74064;SDS011;62421;51.412;5.432;2023-10-13T01:03:58;19.42;;;8.18;;
74064;SDS011;62421;51.412;5.432;2023-10-13T01:06:28;19.55;;;7.57;;
74064;SDS011;62421;51.412;5.432;2023-10-13T01:09:01;17.85;;;7.72;;
74064;SDS011;62421;51.412;5.432;2023-10-13T01:11:37;18.25;;;7.28;;
74064;SDS011;62421;51.412;5.432;2023-10-13T01:14:08;14.07;;;6.53;;
74064;SDS011;62421;51.412;5.432;2023-10-13T01:16:36;21.70;;;7.38;;
74064;SDS011;62421;51.412;5.432;2023-10-13T01:19:05;18.95;;;7.80;;
74064;SDS011;62421;51.412;5.432;2023-10-13T01:21:30;16.87;;;7.50;;
74064;SDS011;62421;51.412;5.432;2023-10-13T01:23:58;19.15;;;7.88;;
74064;SDS011;62421;51.412;5.432;2023-10-13T01:26:24;16.50;;;7.93;;
74064;SDS011;62421;51.412;5.432;2023-10-13T01:28:56;15.37;;;7.27;;
74064;SDS011;62421;51.412;5.432;2023-10-13T01:31:22;21.67;;;7.90;;
74064;SDS011;62421;51.412;5.432;2023-10-13T01:33:54;17.05;;;8.23;;
74064;SDS011;62421;51.412;5.432;2023-10-13T01:36:23;13.93;;;7.78;;
74064;SDS011;62421;51.412;5.432;2023-10-13T01:38:52;21.85;;;8.65;;
74064;SDS011;62421;51.412;5.432;2023-10-13T01:41:18;17.83;;;8.55;;
74064;SDS011;62421;51.412;5.432;2023-10-13T01:43:45;20.73;;;9.80;;
74064;SDS011;62421;51.412;5.432;2023-10-13T01:46:11;23.07;;;11.47;;
74064;SDS011;62421;51.412;5.432;2023-10-13T01:48:40;20.80;;;10.38;;
74064;SDS011;62421;51.412;5.432;2023-10-13T01:51:08;19.85;;;10.20;;
74064;SDS011;62421;51.412;5.432;2023-10-13T01:53:35;19.15;;;10.85;;
74064;SDS011;62421;51.412;5.432;2023-10-13T01:56:02;25.88;;;11.38;;
74064;SDS011;62421;51.412;5.432;2023-10-13T01:58:30;25.73;;;12.60;;
74064;SDS011;62421;51.412;5.432;2023-10-13T02:00:56;34.17;;;14.20;;
74064;SDS011;62421;51.412;5.432;2023-10-13T02:03:21;30.58;;;14.95;;
74064;SDS011;62421;51.412;5.432;2023-10-13T02:05:47;27.80;;;15.03;;
74064;SDS011;62421;51.412;5.432;2023-10-13T02:08:14;34.72;;;16.10;;
74064;SDS011;62421;51.412;5.432;2023-10-13T02:10:53;35.05;;;15.98;;
74064;SDS011;62421;51.412;5.432;2023-10-13T02:13:20;33.97;;;16.43;;
74064;SDS011;62421;51.412;5.432;2023-10-13T02:15:47;35.33;;;16.70;;
74064;SDS011;62421;51.412;5.432;2023-10-13T02:18:16;35.65;;;17.50;;
74064;SDS011;62421;51.412;5.432;2023-10-13T02:20:50;40.10;;;18.75;;
74064;SDS011;62421;51.412;5.432;2023-10-13T02:23:23;37.03;;;17.73;;
74064;SDS011;62421;51.412;5.432;2023-10-13T02:25:55;40.43;;;17.50;;
74064;SDS011;62421;51.412;5.432;2023-10-13T02:28:37;40.28;;;17.73;;
74064;SDS011;62421;51.412;5.432;2023-10-13T02:31:03;38.78;;;18.38;;
74064;SDS011;62421;51.412;5.432;2023-10-13T02:33:29;38.67;;;18.30;;
74064;SDS011;62421;51.412;5.432;2023-10-13T02:35:56;39.35;;;16.65;;
74064;SDS011;62421;51.412;5.432;2023-10-13T02:38:28;34.67;;;17.80;;
74064;SDS011;62421;51.412;5.432;2023-10-13T02:41:10;37.63;;;17.73;;
74064;SDS011;62421;51.412;5.432;2023-10-13T02:43:50;44.83;;;19.60;;
74064;SDS011;62421;51.412;5.432;2023-10-13T02:46:15;42.20;;;18.50;;
74064;SDS011;62421;51.412;5.432;2023-10-13T02:48:41;39.80;;;19.00;;
74064;SDS011;62421;51.412;5.432;2023-10-13T02:51:07;39.92;;;19.52;;
74064;SDS011;62421;51.412;5.432;2023-10-13T02:53:43;43.67;;;19.30;;
74064;SDS011;62421;51.412;5.432;2023-10-13T02:56:14;42.23;;;18.70;;
74064;SDS011;62421;51.412;5.432;2023-10-13T02:58:46;41.67;;;18.95;;
74064;SDS011;62421;51.412;5.432;2023-10-13T03:01:18;41.70;;;19.10;;
74064;SDS011;62421;51.412;5.432;2023-10-13T03:03:45;45.30;;;18.38;;
74064;SDS011;62421;51.412;5.432;2023-10-13T03:06:16;37.80;;;18.95;;
74064;SDS011;62421;51.412;5.432;2023-10-13T03:08:42;40.20;;;17.50;;
74064;SDS011;62421;51.412;5.432;2023-10-13T03:11:08;41.80;;;18.67;;
74064;SDS011;62421;51.412;5.432;2023-10-13T03:13:35;43.90;;;17.92;;
74064;SDS011;62421;51.412;5.432;2023-10-13T03:16:01;45.40;;;19.98;;
74064;SDS011;62421;51.412;5.432;2023-10-13T03:18:29;42.95;;;21.00;;
74064;SDS011;62421;51.412;5.432;2023-10-13T03:20:58;45.57;;;19.80;;
74064;SDS011;62421;51.412;5.432;2023-10-13T03:23:27;37.30;;;18.75;;
74064;SDS011;62421;51.412;5.432;2023-10-13T03:25:53;46.95;;;20.77;;
74064;SDS011;62421;51.412;5.432;2023-10-13T03:28:20;45.88;;;19.63;;
74064;SDS011;62421;51.412;5.432;2023-10-13T03:30:50;45.25;;;18.73;;
74064;SDS011;62421;51.412;5.432;2023-10-13T03:33:17;42.55;;;18.73;;
74064;SDS011;62421;51.412;5.432;2023-10-13T03:35:50;38.97;;;18.45;;
74064;SDS011;62421;51.412;5.432;2023-10-13T03:38:19;45.53;;;19.23;;
74064;SDS011;62421;51.412;5.432;2023-10-13T03:40:45;42.42;;;19.33;;
74064;SDS011;62421;51.412;5.432;2023-10-13T03:43:21;41.17;;;18.60;;
74064;SDS011;62421;51.412;5.432;2023-10-13T03:45:48;48.47;;;19.20;;
74064;SDS011;62421;51.412;5.432;2023-10-13T03:48:18;45.83;;;18.20;;
74064;SDS011;62421;51.412;5.432;2023-10-13T03:50:50;36.90;;;18.45;;
74064;SDS011;62421;51.412;5.432;2023-10-13T03:53:40;38.00;;;17.40;;
74064;SDS011;62421;51.412;5.432;2023-10-13T03:56:18;46.00;;;17.77;;
74064;SDS011;62421;51.412;5.432;2023-10-13T03:58:54;37.07;;;17.30;;
74064;SDS011;62421;51.412;5.432;2023-10-13T04:01:23;40.75;;;19.88;;
74064;SDS011;62421;51.412;5.432;2023-10-13T04:04:12;40.92;;;18.08;;
74064;SDS011;62421;51.412;5.432;2023-10-13T04:06:59;35.33;;;17.05;;
74064;SDS011;62421;51.412;5.432;2023-10-13T04:09:30;44.47;;;17.98;;
74064;SDS011;62421;51.412;5.432;2023-10-13T04:12:02;36.83;;;16.33;;
74064;SDS011;62421;51.412;5.432;2023-10-13T04:14:29;42.53;;;17.38;;
74064;SDS011;62421;51.412;5.432;2023-10-13T04:17:20;39.70;;;17.57;;
74064;SDS011;62421;51.412;5.432;2023-10-13T04:19:52;36.00;;;15.23;;
74064;SDS011;62421;51.412;5.432;2023-10-13T04:22:40;41.40;;;16.77;;
74064;SDS011;62421;51.412;5.432;2023-10-13T04:25:16;36.08;;;16.50;;
74064;SDS011;62421;51.412;5.432;2023-10-13T04:28:04;35.85;;;14.82;;
74064;SDS011;62421;51.412;5.432;2023-10-13T04:30:43;34.07;;;15.27;;
74064;SDS011;62421;51.412;5.432;2023-10-13T04:33:27;34.40;;;15.30;;
74064;SDS011;62421;51.412;5.432;2023-10-13T04:36:09;36.75;;;15.00;;
74064;SDS011;62421;51.412;5.432;2023-10-13T04:38:51;31.13;;;14.85;;
74064;SDS011;62421;51.412;5.432;2023-10-13T04:43:57;34.47;;;16.13;;
74064;SDS011;62421;51.412;5.432;2023-10-13T04:46:30;37.58;;;14.90;;
74064;SDS011;62421;51.412;5.432;2023-10-13T04:49:22;32.95;;;15.65;;
74064;SDS011;62421;51.412;5.432;2023-10-13T04:51:57;34.35;;;14.90;;
74064;SDS011;62421;51.412;5.432;2023-10-13T04:54:27;40.33;;;14.68;;
74064;SDS011;62421;51.412;5.432;2023-10-13T04:57:11;40.53;;;15.00;;
74064;SDS011;62421;51.412;5.432;2023-10-13T04:59:49;26.38;;;13.77;;
74064;SDS011;62421;51.412;5.432;2023-10-13T05:02:33;31.02;;;12.75;;
74064;SDS011;62421;51.412;5.432;2023-10-13T05:07:44;36.20;;;12.38;;
74064;SDS011;62421;51.412;5.432;2023-10-13T05:10:30;28.27;;;11.40;;
74064;SDS011;62421;51.412;5.432;2023-10-13T05:13:14;28.45;;;12.60;;
74064;SDS011;62421;51.412;5.432;2023-10-13T05:15:59;27.20;;;12.13;;
74064;SDS011;62421;51.412;5.432;2023-10-13T05:18:43;28.38;;;11.52;;
74064;SDS011;62421;51.412;5.432;2023-10-13T05:21:28;23.58;;;11.60;;
74064;SDS011;62421;51.412;5.432;2023-10-13T05:24:11;20.63;;;9.80;;
74064;SDS011;62421;51.412;5.432;2023-10-13T05:26:56;24.83;;;10.73;;
74064;SDS011;62421;51.412;5.432;2023-10-13T05:29:40;20.58;;;10.75;;
74064;SDS011;62421;51.412;5.432;2023-10-13T05:32:25;24.95;;;10.70;;
74064;SDS011;62421;51.412;5.432;2023-10-13T05:35:09;23.15;;;11.15;;
74064;SDS011;62421;51.412;5.432;2023-10-13T05:37:53;27.97;;;11.00;;
74064;SDS011;62421;51.412;5.432;2023-10-13T05:40:37;20.48;;;10.00;;
74064;SDS011;62421;51.412;5.432;2023-10-13T05:43:21;18.85;;;10.27;;
74064;SDS011;62421;51.412;5.432;2023-10-13T05:46:05;23.00;;;10.63;;
74064;SDS011;62421;51.412;5.432;2023-10-13T05:49:06;22.52;;;10.13;;
74064;SDS011;62421;51.412;5.432;2023-10-13T05:51:32;24.13;;;10.47;;
74064;SDS011;62421;51.412;5.432;2023-10-13T05:54:08;27.77;;;10.93;;
74064;SDS011;62421;51.412;5.432;2023-10-13T05:56:38;29.55;;;11.73;;
74064;SDS011;62421;51.412;5.432;2023-10-13T05:59:23;26.13;;;11.63;;
74064;SDS011;62421;51.412;5.432;2023-10-13T06:02:07;25.25;;;11.35;;
74064;SDS011;62421;51.412;5.432;2023-10-13T06:04:51;28.80;;;11.97;;
74064;SDS011;62421;51.412;5.432;2023-10-13T06:07:35;23.40;;;10.45;;
74064;SDS011;62421;51.412;5.432;2023-10-13T06:10:19;24.50;;;12.07;;
74064;SDS011;62421;51.412;5.432;2023-10-13T06:13:03;29.85;;;11.45;;
74064;SDS011;62421;51.412;5.432;2023-10-13T06:15:47;28.25;;;11.90;;
74064;SDS011;62421;51.412;5.432;2023-10-13T06:18:31;27.83;;;10.30;;
74064;SDS011;62421;51.412;5.432;2023-10-13T06:21:15;25.20;;;10.40;;
74064;SDS011;62421;51.412;5.432;2023-10-13T06:23:59;24.42;;;10.52;;
74064;SDS011;62421;51.412;5.432;2023-10-13T06:26:42;34.33;;;11.35;;
74064;SDS011;62421;51.412;5.432;2023-10-13T06:29:26;29.83;;;10.55;;
74064;SDS011;62421;51.412;5.432;2023-10-13T06:31:52;28.17;;;10.47;;
74064;SDS011;62421;51.412;5.432;2023-10-13T06:34:17;25.37;;;10.43;;
74064;SDS011;62421;51.412;5.432;2023-10-13T06:36:45;28.33;;;11.40;;
74064;SDS011;62421;51.412;5.432;2023-10-13T06:39:12;31.80;;;10.38;;
74064;SDS011;62421;51.412;5.432;2023-10-13T06:41:56;35.13;;;11.10;;
74064;SDS011;62421;51.412;5.432;2023-10-13T06:44:21;26.93;;;11.40;;
74064;SDS011;62421;51.412;5.432;2023-10-13T06:46:47;23.00;;;10.48;;
74064;SDS011;62421;51.412;5.432;2023-10-13T06:49:14;29.90;;;11.38;;
74064;SDS011;62421;51.412;5.432;2023-10-13T06:51:43;25.07;;;10.17;;
74064;SDS011;62421;51.412;5.432;2023-10-13T06:54:11;25.52;;;9.23;;
74064;SDS011;62421;51.412;5.432;2023-10-13T06:56:45;23.42;;;10.20;;
74064;SDS011;62421;51.412;5.432;2023-10-13T06:59:11;31.55;;;9.90;;
74064;SDS011;62421;51.412;5.432;2023-10-13T07:01:38;32.97;;;9.65;;
74064;SDS011;62421;51.412;5.432;2023-10-13T07:04:08;29.37;;;10.37;;
74064;SDS011;62421;51.412;5.432;2023-10-13T07:06:44;26.73;;;10.65;;
74064;SDS011;62421;51.412;5.432;2023-10-13T07:09:15;27.20;;;10.75;;
74064;SDS011;62421;51.412;5.432;2023-10-13T07:12:00;27.30;;;9.50;;
74064;SDS011;62421;51.412;5.432;2023-10-13T07:14:27;25.42;;;10.55;;
74064;SDS011;62421;51.412;5.432;2023-10-13T07:17:11;24.57;;;9.77;;
74064;SDS011;62421;51.412;5.432;2023-10-13T07:19:36;29.33;;;9.63;;
74064;SDS011;62421;51.412;5.432;2023-10-13T07:22:17;22.03;;;9.20;;
74064;SDS011;62421;51.412;5.432;2023-10-13T07:24:47;31.73;;;11.02;;
74064;SDS011;62421;51.412;5.432;2023-10-13T07:27:16;27.80;;;9.23;;
74064;SDS011;62421;51.412;5.432;2023-10-13T07:29:52;27.13;;;9.05;;
74064;SDS011;62421;51.412;5.432;2023-10-13T07:32:39;26.65;;;9.38;;
74064;SDS011;62421;51.412;5.432;2023-10-13T07:35:14;27.50;;;9.50;;
74064;SDS011;62421;51.412;5.432;2023-10-13T07:37:42;30.48;;;9.60;;
74064;SDS011;62421;51.412;5.432;2023-10-13T07:40:08;31.80;;;9.88;;
74064;SDS011;62421;51.412;5.432;2023-10-13T07:42:47;30.17;;;9.45;;
74064;SDS011;62421;51.412;5.432;2023-10-13T07:45:13;25.87;;;9.47;;
74064;SDS011;62421;51.412;5.432;2023-10-13T07:47:38;27.50;;;8.63;;
74064;SDS011;62421;51.412;5.432;2023-10-13T07:50:04;21.40;;;9.13;;
74064;SDS011;62421;51.412;5.432;2023-10-13T07:52:32;26.67;;;9.98;;
74064;SDS011;62421;51.412;5.432;2023-10-13T07:55:19;25.23;;;9.45;;
74064;SDS011;62421;51.412;5.432;2023-10-13T07:57:47;25.73;;;8.25;;
74064;SDS011;62421;51.412;5.432;2023-10-13T08:00:24;23.02;;;7.45;;
74064;SDS011;62421;51.412;5.432;2023-10-13T08:03:08;23.53;;;8.27;;
74064;SDS011;62421;51.412;5.432;2023-10-13T08:05:54;24.08;;;8.77;;
74064;SDS011;62421;51.412;5.432;2023-10-13T08:08:37;22.52;;;8.27;;
74064;SDS011;62421;51.412;5.432;2023-10-13T08:11:04;20.25;;;8.05;;
74064;SDS011;62421;51.412;5.432;2023-10-13T08:13:37;28.33;;;7.85;;
74064;SDS011;62421;51.412;5.432;2023-10-13T08:16:03;27.40;;;7.57;;
74064;SDS011;62421;51.412;5.432;2023-10-13T08:18:36;21.55;;;8.00;;
74064;SDS011;62421;51.412;5.432;2023-10-13T08:21:06;24.58;;;8.93;;
74064;SDS011;62421;51.412;5.432;2023-10-13T08:23:32;28.43;;;8.03;;
74064;SDS011;62421;51.412;5.432;2023-10-13T08:26:16;22.10;;;8.15;;
74064;SDS011;62421;51.412;5.432;2023-10-13T08:29:01;19.45;;;7.15;;
74064;SDS011;62421;51.412;5.432;2023-10-13T08:31:49;23.60;;;7.03;;
74064;SDS011;62421;51.412;5.432;2023-10-13T08:34:34;24.77;;;7.10;;
74064;SDS011;62421;51.412;5.432;2023-10-13T08:37:09;23.60;;;7.63;;
74064;SDS011;62421;51.412;5.432;2023-10-13T08:39:58;22.48;;;7.18;;
74064;SDS011;62421;51.412;5.432;2023-10-13T08:47:46;15.90;;;6.53;;
74064;SDS011;62421;51.412;5.432;2023-10-13T08:50:19;14.93;;;6.18;;
74064;SDS011;62421;51.412;5.432;2023-10-13T08:53:05;18.17;;;7.10;;
74064;SDS011;62421;51.412;5.432;2023-10-13T08:55:51;17.10;;;6.82;;
74064;SDS011;62421;51.412;5.432;2023-10-13T09:03:59;15.90;;;6.57;;
74064;SDS011;62421;51.412;5.432;2023-10-13T09:06:56;23.92;;;7.28;;
74064;SDS011;62421;51.412;5.432;2023-10-13T09:09:29;14.85;;;5.82;;
74064;SDS011;62421;51.412;5.432;2023-10-13T09:12:11;18.40;;;6.43;;
74064;SDS011;62421;51.412;5.432;2023-10-13T09:14:44;15.03;;;6.20;;
74064;SDS011;62421;51.412;5.432;2023-10-13T09:17:25;17.20;;;6.03;;
74064;SDS011;62421;51.412;5.432;2023-10-13T09:20:04;17.77;;;6.88;;
74064;SDS011;62421;51.412;5.432;2023-10-13T09:22:56;24.23;;;6.20;;
74064;SDS011;62421;51.412;5.432;2023-10-13T09:25:34;19.02;;;5.75;;
74064;SDS011;62421;51.412;5.432;2023-10-13T09:28:02;17.67;;;5.77;;
74064;SDS011;62421;51.412;5.432;2023-10-13T09:30:35;20.15;;;6.22;;
74064;SDS011;62421;51.412;5.432;2023-10-13T09:33:07;14.98;;;6.28;;
74064;SDS011;62421;51.412;5.432;2023-10-13T09:35:40;19.52;;;6.50;;
74064;SDS011;62421;51.412;5.432;2023-10-13T09:38:14;17.05;;;6.43;;
74064;SDS011;62421;51.412;5.432;2023-10-13T09:40:40;21.23;;;6.30;;
74064;SDS011;62421;51.412;5.432;2023-10-13T09:43:11;20.55;;;6.97;;
74064;SDS011;62421;51.412;5.432;2023-10-13T09:45:40;15.43;;;5.50;;
74064;SDS011;62421;51.412;5.432;2023-10-13T09:48:26;22.67;;;6.32;;
74064;SDS011;62421;51.412;5.432;2023-10-13T09:50:58;14.60;;;5.90;;
74064;SDS011;62421;51.412;5.432;2023-10-13T09:53:29;21.50;;;5.90;;
74064;SDS011;62421;51.412;5.432;2023-10-13T09:56:08;18.90;;;5.70;;
74064;SDS011;62421;51.412;5.432;2023-10-13T09:58:39;14.48;;;5.93;;
74064;SDS011;62421;51.412;5.432;2023-10-13T10:01:24;18.95;;;5.78;;
74064;SDS011;62421;51.412;5.432;2023-10-13T10:04:08;25.17;;;6.47;;
74064;SDS011;62421;51.412;5.432;2023-10-13T10:06:38;17.90;;;5.80;;
74064;SDS011;62421;51.412;5.432;2023-10-13T10:09:11;15.35;;;5.45;;
74064;SDS011;62421;51.412;5.432;2023-10-13T10:14:42;17.30;;;5.70;;
74064;SDS011;62421;51.412;5.432;2023-10-13T10:17:26;14.57;;;5.45;;
74064;SDS011;62421;51.412;5.432;2023-10-13T10:19:55;13.90;;;6.07;;
74064;SDS011;62421;51.412;5.432;2023-10-13T10:22:40;14.30;;;5.45;;
74064;SDS011;62421;51.412;5.432;2023-10-13T10:25:13;21.67;;;6.65;;
74064;SDS011;62421;51.412;5.432;2023-10-13T10:28:00;15.45;;;5.95;;
74064;SDS011;62421;51.412;5.432;2023-10-13T10:30:31;15.23;;;6.20;;
74064;SDS011;62421;51.412;5.432;2023-10-13T10:32:59;19.40;;;6.03;;
74064;SDS011;62421;51.412;5.432;2023-10-13T10:35:26;14.55;;;5.40;;
74064;SDS011;62421;51.412;5.432;2023-10-13T10:37:57;17.52;;;6.60;;
74064;SDS011;62421;51.412;5.432;2023-10-13T10:40:47;19.23;;;5.25;;
74064;SDS011;62421;51.412;5.432;2023-10-13T10:43:16;24.73;;;6.35;;
74064;SDS011;62421;51.412;5.432;2023-10-13T10:45:45;16.37;;;5.90;;
74064;SDS011;62421;51.412;5.432;2023-10-13T10:48:14;12.60;;;5.57;;
74064;SDS011;62421;51.412;5.432;2023-10-13T10:50:53;13.52;;;5.57;;
74064;SDS011;62421;51.412;5.432;2023-10-13T10:53:22;16.20;;;6.00;;
74064;SDS011;62421;51.412;5.432;2023-10-13T10:56:03;23.75;;;6.43;;
74064;SDS011;62421;51.412;5.432;2023-10-13T10:58:33;14.53;;;6.23;;
74064;SDS011;62421;51.412;5.432;2023-10-13T11:01:08;14.60;;;5.75;;
74064;SDS011;62421;51.412;5.432;2023-10-13T11:03:36;19.77;;;6.85;;
74064;SDS011;62421;51.412;5.432;2023-10-13T11:06:07;14.85;;;5.57;;
74064;SDS011;62421;51.412;5.432;2023-10-13T11:08:41;19.75;;;6.30;;
74064;SDS011;62421;51.412;5.432;2023-10-13T11:11:09;22.37;;;6.23;;
74064;SDS011;62421;51.412;5.432;2023-10-13T11:13:43;16.33;;;5.22;;
74064;SDS011;62421;51.412;5.432;2023-10-13T11:16:44;19.33;;;6.47;;
74064;SDS011;62421;51.412;5.432;2023-10-13T11:19:10;18.92;;;6.63;;
74064;SDS011;62421;51.412;5.432;2023-10-13T11:21:36;20.88;;;5.95;;
74064;SDS011;62421;51.412;5.432;2023-10-13T11:24:02;18.47;;;5.27;;
74064;SDS011;62421;51.412;5.432;2023-10-13T11:26:34;16.10;;;4.95;;
74064;SDS011;62421;51.412;5.432;2023-10-13T11:29:00;17.15;;;5.75;;
74064;SDS011;62421;51.412;5.432;2023-10-13T11:31:31;24.80;;;6.23;;
74064;SDS011;62421;51.412;5.432;2023-10-13T11:33:56;18.53;;;5.33;;
74064;SDS011;62421;51.412;5.432;2023-10-13T11:36:21;25.17;;;5.53;;
74064;SDS011;62421;51.412;5.432;2023-10-13T11:38:48;14.35;;;5.40;;
74064;SDS011;62421;51.412;5.432;2023-10-13T11:41:13;18.90;;;5.50;;
74064;SDS011;62421;51.412;5.432;2023-10-13T11:43:47;15.65;;;5.95;;
74064;SDS011;62421;51.412;5.432;2023-10-13T11:46:20;23.67;;;5.22;;
74064;SDS011;62421;51.412;5.432;2023-10-13T11:54:22;20.50;;;5.63;;
74064;SDS011;62421;51.412;5.432;2023-10-13T11:56:48;23.10;;;5.68;;
74064;SDS011;62421;51.412;5.432;2023-10-13T11:59:14;19.75;;;6.07;;
74064;SDS011;62421;51.412;5.432;2023-10-13T12:01:43;19.77;;;5.43;;
74064;SDS011;62421;51.412;5.432;2023-10-13T12:04:30;21.63;;;5.67;;
74064;SDS011;62421;51.412;5.432;2023-10-13T12:07:00;21.42;;;6.10;;
74064;SDS011;62421;51.412;5.432;2023-10-13T12:09:46;21.70;;;5.82;;
74064;SDS011;62421;51.412;5.432;2023-10-13T12:12:22;19.80;;;6.25;;
74064;SDS011;62421;51.412;5.432;2023-10-13T12:14:48;26.42;;;6.15;;
74064;SDS011;62421;51.412;5.432;2023-10-13T12:17:24;21.67;;;5.50;;
74064;SDS011;62421;51.412;5.432;2023-10-13T12:19:56;30.27;;;6.15;;
74064;SDS011;62421;51.412;5.432;2023-10-13T12:22:22;23.08;;;5.70;;
74064;SDS011;62421;51.412;5.432;2023-10-13T12:24:56;20.27;;;5.75;;
74064;SDS011;62421;51.412;5.432;2023-10-13T12:27:22;19.20;;;4.80;;
74064;SDS011;62421;51.412;5.432;2023-10-13T12:29:49;25.73;;;6.20;;
74064;SDS011;62421;51.412;5.432;2023-10-13T12:32:17;23.73;;;6.30;;
74064;SDS011;62421;51.412;5.432;2023-10-13T12:34:47;21.08;;;5.00;;
74064;SDS011;62421;51.412;5.432;2023-10-13T12:37:23;17.02;;;4.70;;
74064;SDS011;62421;51.412;5.432;2023-10-13T12:40:01;20.27;;;6.38;;
74064;SDS011;62421;51.412;5.432;2023-10-13T12:42:52;20.30;;;5.63;;
74064;SDS011;62421;51.412;5.432;2023-10-13T12:45:40;13.73;;;5.32;;
74064;SDS011;62421;51.412;5.432;2023-10-13T12:48:25;17.75;;;5.35;;
74064;SDS011;62421;51.412;5.432;2023-10-13T12:51:09;25.30;;;5.78;;
74064;SDS011;62421;51.412;5.432;2023-10-13T12:53:53;18.52;;;5.38;;
74064;SDS011;62421;51.412;5.432;2023-10-13T12:56:19;24.03;;;5.63;;
74064;SDS011;62421;51.412;5.432;2023-10-13T12:58:52;17.63;;;5.30;;
74064;SDS011;62421;51.412;5.432;2023-10-13T13:01:18;19.98;;;5.82;;
74064;SDS011;62421;51.412;5.432;2023-10-13T13:03:47;22.65;;;5.80;;
74064;SDS011;62421;51.412;5.432;2023-10-13T13:06:20;21.38;;;5.22;;
74064;SDS011;62421;51.412;5.432;2023-10-13T13:08:53;16.97;;;4.57;;
74064;SDS011;62421;51.412;5.432;2023-10-13T13:11:19;18.13;;;5.68;;
74064;SDS011;62421;51.412;5.432;2023-10-13T13:13:45;17.52;;;5.00;;
74064;SDS011;62421;51.412;5.432;2023-10-13T13:16:11;24.17;;;6.13;;
74064;SDS011;62421;51.412;5.432;2023-10-13T13:18:43;21.43;;;5.27;;
74064;SDS011;62421;51.412;5.432;2023-10-13T13:21:09;21.63;;;4.50;;
74064;SDS011;62421;51.412;5.432;2023-10-13T13:23:37;22.60;;;4.85;;
74064;SDS011;62421;51.412;5.432;2023-10-13T13:26:05;15.80;;;4.53;;
74064;SDS011;62421;51.412;5.432;2023-10-13T13:28:40;19.67;;;5.03;;
74064;SDS011;62421;51.412;5.432;2023-10-13T13:31:07;17.95;;;4.43;;
74064;SDS011;62421;51.412;5.432;2023-10-13T13:33:33;22.60;;;5.80;;
74064;SDS011;62421;51.412;5.432;2023-10-13T13:36:03;21.63;;;4.57;;
74064;SDS011;62421;51.412;5.432;2023-10-13T13:38:29;26.48;;;5.75;;
74064;SDS011;62421;51.412;5.432;2023-10-13T13:40:57;19.70;;;5.47;;
74064;SDS011;62421;51.412;5.432;2023-10-13T13:43:23;23.88;;;5.50;;
74064;SDS011;62421;51.412;5.432;2023-10-13T13:46:06;26.53;;;5.63;;
74064;SDS011;62421;51.412;5.432;2023-10-13T13:48:37;17.55;;;4.70;;
74064;SDS011;62421;51.412;5.432;2023-10-13T13:51:07;25.45;;;6.63;;
74064;SDS011;62421;51.412;5.432;2023-10-13T13:53:45;24.02;;;5.32;;
74064;SDS011;62421;51.412;5.432;2023-10-13T13:56:12;26.15;;;5.70;;
74064;SDS011;62421;51.412;5.432;2023-10-13T13:58:41;16.17;;;4.70;;
74064;SDS011;62421;51.412;5.432;2023-10-13T14:01:07;19.58;;;5.50;;
74064;SDS011;62421;51.412;5.432;2023-10-13T14:03:47;22.38;;;4.95;;
74064;SDS011;62421;51.412;5.432;2023-10-13T14:06:16;17.40;;;4.07;;
74064;SDS011;62421;51.412;5.432;2023-10-13T14:08:46;28.75;;;5.53;;
74064;SDS011;62421;51.412;5.432;2023-10-13T14:11:22;23.70;;;4.20;;
74064;SDS011;62421;51.412;5.432;2023-10-13T14:14:13;15.70;;;5.00;;
74064;SDS011;62421;51.412;5.432;2023-10-13T14:16:51;15.98;;;4.65;;
74064;SDS011;62421;51.412;5.432;2023-10-13T14:19:17;13.87;;;4.20;;
74064;SDS011;62421;51.412;5.432;2023-10-13T14:21:52;35.53;;;5.47;;
74064;SDS011;62421;51.412;5.432;2023-10-13T14:24:21;26.35;;;5.05;;
74064;SDS011;62421;51.412;5.432;2023-10-13T14:26:56;12.85;;;4.13;;
74064;SDS011;62421;51.412;5.432;2023-10-13T14:29:52;21.80;;;4.70;;
74064;SDS011;62421;51.412;5.432;2023-10-13T14:32:21;19.73;;;5.47;;
74064;SDS011;62421;51.412;5.432;2023-10-13T14:34:49;20.40;;;5.53;;
74064;SDS011;62421;51.412;5.432;2023-10-13T14:37:19;16.58;;;5.38;;
74064;SDS011;62421;51.412;5.432;2023-10-13T14:39:54;16.90;;;4.72;;
74064;SDS011;62421;51.412;5.432;2023-10-13T14:42:24;16.23;;;4.82;;
74064;SDS011;62421;51.412;5.432;2023-10-13T14:44:50;19.60;;;4.67;;
74064;SDS011;62421;51.412;5.432;2023-10-13T14:47:20;19.17;;;4.70;;
74064;SDS011;62421;51.412;5.432;2023-10-13T14:49:56;23.35;;;4.72;;
74064;SDS011;62421;51.412;5.432;2023-10-13T14:52:25;16.02;;;4.45;;
74064;SDS011;62421;51.412;5.432;2023-10-13T14:54:51;20.85;;;5.07;;
74064;SDS011;62421;51.412;5.432;2023-10-13T14:57:20;15.17;;;4.83;;
74064;SDS011;62421;51.412;5.432;2023-10-13T14:59:55;13.38;;;4.43;;
74064;SDS011;62421;51.412;5.432;2023-10-13T15:02:21;10.82;;;4.82;;
74064;SDS011;62421;51.412;5.432;2023-10-13T15:04:49;15.83;;;4.50;;
74064;SDS011;62421;51.412;5.432;2023-10-13T15:07:15;17.77;;;5.53;;
74064;SDS011;62421;51.412;5.432;2023-10-13T15:09:42;13.55;;;4.53;;
74064;SDS011;62421;51.412;5.432;2023-10-13T15:12:08;14.85;;;4.80;;
74064;SDS011;62421;51.412;5.432;2023-10-13T15:14:36;15.13;;;4.85;;
74064;SDS011;62421;51.412;5.432;2023-10-13T15:17:02;13.63;;;4.23;;
74064;SDS011;62421;51.412;5.432;2023-10-13T15:19:31;14.63;;;4.95;;
74064;SDS011;62421;51.412;5.432;2023-10-13T15:22:01;15.73;;;4.45;;
74064;SDS011;62421;51.412;5.432;2023-10-13T15:24:26;15.77;;;5.10;;
74064;SDS011;62421;51.412;5.432;2023-10-13T15:26:52;19.30;;;5.37;;
74064;SDS011;62421;51.412;5.432;2023-10-13T15:29:22;17.67;;;4.70;;
74064;SDS011;62421;51.412;5.432;2023-10-13T15:31:51;16.70;;;5.10;;